sensor_id;sensor_type;location;lat;lon;timestamp;P1;durP1;ratioP1;P2;durP2;ratioP2
5704;SDS011;2877;48.238;11.160;2022-12-11T00:01:30;26.60;;;13.47;;
5704;SDS011;2877;48.238;11.160;2022-12-11T00:03:56;29.70;;;14.63;;
5704;SDS011;2877;48.238;11.160;2022-12-11T00:06:21;28.57;;;14.50;;
5704;SDS011;2877;48.238;11.160;2022-12-11T00:08:49;30.67;;;15.00;;
5704;SDS011;2877;48.238;11.160;2022-12-11T00:11:16;23.50;;;11.80;;
5704;SDS011;2877;48.238;11.160;2022-12-11T00:13:42;27.07;;;13.87;;
5704;SDS011;2877;48.238;11.160;2022-12-11T00:16:08;21.07;;;11.80;;
5704;SDS011;2877;48.238;11.160;2022-12-11T00:18:34;24.57;;;12.57;;
5704;SDS011;2877;48.238;11.160;2022-12-11T00:21:01;25.30;;;12.80;;
5704;SDS011;2877;48.238;11.160;2022-12-11T00:23:28;23.70;;;12.47;;
5704;SDS011;2877;48.238;11.160;2022-12-11T00:25:54;20.40;;;11.03;;
5704;SDS011;2877;48.238;11.160;2022-12-11T00:28:20;21.03;;;10.70;;
5704;SDS011;2877;48.238;11.160;2022-12-11T00:30:45;20.27;;;10.40;;
5704;SDS011;2877;48.238;11.160;2022-12-11T00:33:12;15.20;;;7.97;;
5704;SDS011;2877;48.238;11.160;2022-12-11T00:35:39;22.00;;;10.57;;
5704;SDS011;2877;48.238;11.160;2022-12-11T00:38:06;18.70;;;10.23;;
5704;SDS011;2877;48.238;11.160;2022-12-11T00:40:33;19.53;;;9.43;;
5704;SDS011;2877;48.238;11.160;2022-12-11T00:42:59;18.33;;;8.80;;
5704;SDS011;2877;48.238;11.160;2022-12-11T00:45:25;20.67;;;10.43;;
5704;SDS011;2877;48.238;11.160;2022-12-11T00:47:51;16.83;;;8.87;;
5704;SDS011;2877;48.238;11.160;2022-12-11T00:50:16;15.73;;;9.57;;
5704;SDS011;2877;48.238;11.160;2022-12-11T00:52:42;16.13;;;9.60;;
5704;SDS011;2877;48.238;11.160;2022-12-11T00:55:08;19.67;;;9.87;;
5704;SDS011;2877;48.238;11.160;2022-12-11T00:57:33;25.60;;;10.10;;
5704;SDS011;2877;48.238;11.160;2022-12-11T00:59:59;19.03;;;10.10;;
5704;SDS011;2877;48.238;11.160;2022-12-11T01:02:24;17.30;;;9.53;;
5704;SDS011;2877;48.238;11.160;2022-12-11T01:04:50;15.10;;;9.40;;
5704;SDS011;2877;48.238;11.160;2022-12-11T01:07:15;19.40;;;9.60;;
5704;SDS011;2877;48.238;11.160;2022-12-11T01:09:41;18.80;;;9.47;;
5704;SDS011;2877;48.238;11.160;2022-12-11T01:12:25;20.00;;;10.40;;
5704;SDS011;2877;48.238;11.160;2022-12-11T01:14:52;17.60;;;10.23;;
5704;SDS011;2877;48.238;11.160;2022-12-11T01:17:18;19.13;;;9.37;;
5704;SDS011;2877;48.238;11.160;2022-12-11T01:19:44;13.33;;;8.17;;
5704;SDS011;2877;48.238;11.160;2022-12-11T01:22:10;19.80;;;10.93;;
5704;SDS011;2877;48.238;11.160;2022-12-11T01:24:35;18.37;;;9.83;;
5704;SDS011;2877;48.238;11.160;2022-12-11T01:27:02;20.53;;;11.07;;
5704;SDS011;2877;48.238;11.160;2022-12-11T01:29:27;20.00;;;11.10;;
5704;SDS011;2877;48.238;11.160;2022-12-11T01:31:53;18.00;;;9.70;;
5704;SDS011;2877;48.238;11.160;2022-12-11T01:34:18;21.37;;;10.87;;
5704;SDS011;2877;48.238;11.160;2022-12-11T01:36:44;23.53;;;11.17;;
5704;SDS011;2877;48.238;11.160;2022-12-11T01:39:10;17.63;;;9.60;;
5704;SDS011;2877;48.238;11.160;2022-12-11T01:41:35;22.70;;;10.27;;
5704;SDS011;2877;48.238;11.160;2022-12-11T01:44:03;19.47;;;10.43;;
5704;SDS011;2877;48.238;11.160;2022-12-11T01:46:32;17.53;;;9.27;;
5704;SDS011;2877;48.238;11.160;2022-12-11T01:49:00;19.87;;;10.50;;
5704;SDS011;2877;48.238;11.160;2022-12-11T01:51:28;16.53;;;10.40;;
5704;SDS011;2877;48.238;11.160;2022-12-11T01:53:58;17.37;;;10.00;;
5704;SDS011;2877;48.238;11.160;2022-12-11T01:56:30;19.20;;;10.90;;
5704;SDS011;2877;48.238;11.160;2022-12-11T01:58:58;19.10;;;10.97;;
5704;SDS011;2877;48.238;11.160;2022-12-11T02:01:36;20.70;;;11.80;;
5704;SDS011;2877;48.238;11.160;2022-12-11T02:04:09;22.07;;;11.23;;
5704;SDS011;2877;48.238;11.160;2022-12-11T02:09:02;22.40;;;12.50;;
5704;SDS011;2877;48.238;11.160;2022-12-11T02:11:49;21.50;;;11.67;;
5704;SDS011;2877;48.238;11.160;2022-12-11T02:14:38;17.77;;;10.40;;
5704;SDS011;2877;48.238;11.160;2022-12-11T02:17:09;20.93;;;11.83;;
5704;SDS011;2877;48.238;11.160;2022-12-11T02:22:57;21.90;;;10.93;;
5704;SDS011;2877;48.238;11.160;2022-12-11T02:30:46;21.53;;;11.87;;
5704;SDS011;2877;48.238;11.160;2022-12-11T02:33:15;24.10;;;12.70;;
5704;SDS011;2877;48.238;11.160;2022-12-11T02:35:47;23.93;;;12.20;;
5704;SDS011;2877;48.238;11.160;2022-12-11T02:38:15;19.87;;;11.07;;
5704;SDS011;2877;48.238;11.160;2022-12-11T02:40:46;22.63;;;11.43;;
5704;SDS011;2877;48.238;11.160;2022-12-11T02:43:15;26.07;;;12.37;;
5704;SDS011;2877;48.238;11.160;2022-12-11T02:45:43;21.67;;;11.97;;
5704;SDS011;2877;48.238;11.160;2022-12-11T02:48:10;22.47;;;11.90;;
5704;SDS011;2877;48.238;11.160;2022-12-11T02:50:40;21.20;;;11.90;;
5704;SDS011;2877;48.238;11.160;2022-12-11T02:53:10;21.80;;;12.33;;
5704;SDS011;2877;48.238;11.160;2022-12-11T02:55:37;23.23;;;12.50;;
5704;SDS011;2877;48.238;11.160;2022-12-11T02:58:11;21.17;;;11.40;;
5704;SDS011;2877;48.238;11.160;2022-12-11T03:00:40;23.80;;;11.87;;
5704;SDS011;2877;48.238;11.160;2022-12-11T03:03:06;23.57;;;11.13;;
5704;SDS011;2877;48.238;11.160;2022-12-11T03:05:31;24.00;;;12.23;;
5704;SDS011;2877;48.238;11.160;2022-12-11T03:07:57;23.53;;;11.90;;
5704;SDS011;2877;48.238;11.160;2022-12-11T03:10:23;23.40;;;12.53;;
5704;SDS011;2877;48.238;11.160;2022-12-11T03:12:49;25.43;;;12.53;;
5704;SDS011;2877;48.238;11.160;2022-12-11T03:15:18;22.90;;;12.37;;
5704;SDS011;2877;48.238;11.160;2022-12-11T03:25:34;25.93;;;11.40;;
5704;SDS011;2877;48.238;11.160;2022-12-11T03:28:15;20.70;;;11.17;;
5704;SDS011;2877;48.238;11.160;2022-12-11T03:30:45;20.70;;;11.60;;
5704;SDS011;2877;48.238;11.160;2022-12-11T03:33:14;22.53;;;10.90;;
5704;SDS011;2877;48.238;11.160;2022-12-11T03:36:03;24.17;;;12.53;;
5704;SDS011;2877;48.238;11.160;2022-12-11T03:38:37;21.07;;;11.67;;
5704;SDS011;2877;48.238;11.160;2022-12-11T03:41:08;21.20;;;11.13;;
5704;SDS011;2877;48.238;11.160;2022-12-11T03:43:36;20.60;;;11.93;;
5704;SDS011;2877;48.238;11.160;2022-12-11T03:46:03;16.77;;;9.87;;
5704;SDS011;2877;48.238;11.160;2022-12-11T03:48:32;19.03;;;11.10;;
5704;SDS011;2877;48.238;11.160;2022-12-11T03:51:00;18.40;;;10.90;;
5704;SDS011;2877;48.238;11.160;2022-12-11T03:53:29;19.13;;;11.07;;
5704;SDS011;2877;48.238;11.160;2022-12-11T03:55:57;18.37;;;10.13;;
5704;SDS011;2877;48.238;11.160;2022-12-11T03:58:24;17.73;;;10.70;;
5704;SDS011;2877;48.238;11.160;2022-12-11T04:00:50;20.63;;;11.47;;
5704;SDS011;2877;48.238;11.160;2022-12-11T04:03:15;17.80;;;10.23;;
5704;SDS011;2877;48.238;11.160;2022-12-11T04:05:48;22.13;;;11.87;;
5704;SDS011;2877;48.238;11.160;2022-12-11T04:08:18;21.40;;;10.73;;
5704;SDS011;2877;48.238;11.160;2022-12-11T04:10:45;22.90;;;11.50;;
5704;SDS011;2877;48.238;11.160;2022-12-11T04:13:11;17.80;;;10.97;;
5704;SDS011;2877;48.238;11.160;2022-12-11T04:15:37;19.53;;;10.90;;
5704;SDS011;2877;48.238;11.160;2022-12-11T04:18:03;21.07;;;11.20;;
5704;SDS011;2877;48.238;11.160;2022-12-11T04:20:48;20.70;;;11.60;;
5704;SDS011;2877;48.238;11.160;2022-12-11T04:23:32;23.67;;;11.40;;
5704;SDS011;2877;48.238;11.160;2022-12-11T04:26:17;20.30;;;11.37;;
5704;SDS011;2877;48.238;11.160;2022-12-11T04:28:45;23.20;;;12.63;;
5704;SDS011;2877;48.238;11.160;2022-12-11T04:31:12;22.97;;;12.00;;
5704;SDS011;2877;48.238;11.160;2022-12-11T04:33:38;21.90;;;11.70;;
5704;SDS011;2877;48.238;11.160;2022-12-11T04:36:05;22.90;;;11.60;;
5704;SDS011;2877;48.238;11.160;2022-12-11T04:38:31;23.67;;;11.73;;
5704;SDS011;2877;48.238;11.160;2022-12-11T04:41:01;20.43;;;11.63;;
5704;SDS011;2877;48.238;11.160;2022-12-11T04:43:28;20.57;;;11.43;;
5704;SDS011;2877;48.238;11.160;2022-12-11T04:46:04;20.83;;;12.17;;
5704;SDS011;2877;48.238;11.160;2022-12-11T04:48:35;19.10;;;11.10;;
5704;SDS011;2877;48.238;11.160;2022-12-11T04:51:01;18.40;;;10.17;;
5704;SDS011;2877;48.238;11.160;2022-12-11T04:53:27;18.47;;;10.83;;
5704;SDS011;2877;48.238;11.160;2022-12-11T04:55:53;19.37;;;11.43;;
5704;SDS011;2877;48.238;11.160;2022-12-11T04:58:19;20.47;;;10.63;;
5704;SDS011;2877;48.238;11.160;2022-12-11T05:00:45;15.90;;;9.97;;
5704;SDS011;2877;48.238;11.160;2022-12-11T05:03:11;14.30;;;8.97;;
5704;SDS011;2877;48.238;11.160;2022-12-11T05:05:36;18.47;;;10.40;;
5704;SDS011;2877;48.238;11.160;2022-12-11T05:08:02;18.40;;;10.17;;
5704;SDS011;2877;48.238;11.160;2022-12-11T05:10:28;14.60;;;9.13;;
5704;SDS011;2877;48.238;11.160;2022-12-11T05:12:54;14.90;;;9.37;;
5704;SDS011;2877;48.238;11.160;2022-12-11T05:15:19;16.30;;;9.57;;
5704;SDS011;2877;48.238;11.160;2022-12-11T05:17:45;15.70;;;8.67;;
5704;SDS011;2877;48.238;11.160;2022-12-11T05:20:11;14.57;;;8.90;;
5704;SDS011;2877;48.238;11.160;2022-12-11T05:22:37;14.90;;;8.90;;
5704;SDS011;2877;48.238;11.160;2022-12-11T05:25:03;13.77;;;8.53;;
5704;SDS011;2877;48.238;11.160;2022-12-11T05:27:30;17.30;;;9.37;;
5704;SDS011;2877;48.238;11.160;2022-12-11T05:29:55;16.40;;;9.83;;
5704;SDS011;2877;48.238;11.160;2022-12-11T05:32:21;16.00;;;9.50;;
5704;SDS011;2877;48.238;11.160;2022-12-11T05:34:46;15.57;;;9.40;;
5704;SDS011;2877;48.238;11.160;2022-12-11T05:37:13;16.87;;;9.80;;
5704;SDS011;2877;48.238;11.160;2022-12-11T05:39:39;15.50;;;9.10;;
5704;SDS011;2877;48.238;11.160;2022-12-11T05:42:04;16.73;;;9.50;;
5704;SDS011;2877;48.238;11.160;2022-12-11T05:44:30;20.70;;;10.00;;
5704;SDS011;2877;48.238;11.160;2022-12-11T05:46:56;17.30;;;9.60;;
5704;SDS011;2877;48.238;11.160;2022-12-11T05:49:21;15.87;;;8.73;;
5704;SDS011;2877;48.238;11.160;2022-12-11T05:51:47;17.20;;;8.43;;
5704;SDS011;2877;48.238;11.160;2022-12-11T05:54:12;16.00;;;8.73;;
5704;SDS011;2877;48.238;11.160;2022-12-11T05:56:38;19.60;;;10.13;;
5704;SDS011;2877;48.238;11.160;2022-12-11T05:59:04;15.07;;;8.73;;
5704;SDS011;2877;48.238;11.160;2022-12-11T06:04:01;14.27;;;8.37;;
5704;SDS011;2877;48.238;11.160;2022-12-11T06:06:28;15.30;;;9.13;;
5704;SDS011;2877;48.238;11.160;2022-12-11T06:08:55;17.63;;;8.80;;
5704;SDS011;2877;48.238;11.160;2022-12-11T06:11:21;16.17;;;8.90;;
5704;SDS011;2877;48.238;11.160;2022-12-11T06:13:47;19.67;;;10.40;;
5704;SDS011;2877;48.238;11.160;2022-12-11T06:16:14;17.70;;;9.30;;
5704;SDS011;2877;48.238;11.160;2022-12-11T06:18:40;16.10;;;9.03;;
5704;SDS011;2877;48.238;11.160;2022-12-11T06:21:11;14.30;;;8.53;;
5704;SDS011;2877;48.238;11.160;2022-12-11T06:23:42;21.07;;;9.30;;
5704;SDS011;2877;48.238;11.160;2022-12-11T06:26:08;15.13;;;8.60;;
5704;SDS011;2877;48.238;11.160;2022-12-11T06:28:34;16.77;;;9.40;;
5704;SDS011;2877;48.238;11.160;2022-12-11T06:31:00;17.70;;;9.57;;
5704;SDS011;2877;48.238;11.160;2022-12-11T06:33:26;19.80;;;9.67;;
5704;SDS011;2877;48.238;11.160;2022-12-11T06:35:52;14.13;;;8.27;;
5704;SDS011;2877;48.238;11.160;2022-12-11T06:38:17;17.47;;;9.50;;
5704;SDS011;2877;48.238;11.160;2022-12-11T06:40:43;20.23;;;10.80;;
5704;SDS011;2877;48.238;11.160;2022-12-11T06:43:10;15.20;;;9.07;;
5704;SDS011;2877;48.238;11.160;2022-12-11T06:45:36;19.47;;;10.50;;
5704;SDS011;2877;48.238;11.160;2022-12-11T06:48:02;17.10;;;8.40;;
5704;SDS011;2877;48.238;11.160;2022-12-11T06:50:28;18.47;;;10.33;;
5704;SDS011;2877;48.238;11.160;2022-12-11T06:52:54;18.47;;;9.77;;
5704;SDS011;2877;48.238;11.160;2022-12-11T06:55:20;19.10;;;10.77;;
5704;SDS011;2877;48.238;11.160;2022-12-11T06:57:46;19.47;;;11.17;;
5704;SDS011;2877;48.238;11.160;2022-12-11T07:00:12;18.97;;;11.13;;
5704;SDS011;2877;48.238;11.160;2022-12-11T07:02:38;19.00;;;10.60;;
5704;SDS011;2877;48.238;11.160;2022-12-11T07:05:04;21.67;;;11.30;;
5704;SDS011;2877;48.238;11.160;2022-12-11T07:07:30;21.23;;;10.67;;
5704;SDS011;2877;48.238;11.160;2022-12-11T07:09:55;16.00;;;9.23;;
5704;SDS011;2877;48.238;11.160;2022-12-11T07:12:21;16.90;;;9.67;;
5704;SDS011;2877;48.238;11.160;2022-12-11T07:14:46;17.30;;;10.00;;
5704;SDS011;2877;48.238;11.160;2022-12-11T07:17:12;16.57;;;9.53;;
5704;SDS011;2877;48.238;11.160;2022-12-11T07:19:37;19.60;;;10.67;;
5704;SDS011;2877;48.238;11.160;2022-12-11T07:22:04;19.90;;;11.23;;
5704;SDS011;2877;48.238;11.160;2022-12-11T07:24:30;25.37;;;11.63;;
5704;SDS011;2877;48.238;11.160;2022-12-11T07:26:56;19.67;;;11.33;;
5704;SDS011;2877;48.238;11.160;2022-12-11T07:29:21;19.73;;;10.50;;
5704;SDS011;2877;48.238;11.160;2022-12-11T07:31:47;21.57;;;11.30;;
5704;SDS011;2877;48.238;11.160;2022-12-11T07:34:13;20.37;;;11.30;;
5704;SDS011;2877;48.238;11.160;2022-12-11T07:36:39;21.60;;;9.77;;
5704;SDS011;2877;48.238;11.160;2022-12-11T07:39:04;23.60;;;14.03;;
5704;SDS011;2877;48.238;11.160;2022-12-11T07:41:31;22.93;;;11.93;;
5704;SDS011;2877;48.238;11.160;2022-12-11T07:43:57;25.60;;;14.17;;
5704;SDS011;2877;48.238;11.160;2022-12-11T07:46:25;22.50;;;12.17;;
5704;SDS011;2877;48.238;11.160;2022-12-11T07:48:52;19.67;;;11.17;;
5704;SDS011;2877;48.238;11.160;2022-12-11T07:53:47;21.90;;;11.40;;
5704;SDS011;2877;48.238;11.160;2022-12-11T07:56:14;17.70;;;10.37;;
5704;SDS011;2877;48.238;11.160;2022-12-11T07:58:41;19.93;;;10.63;;
5704;SDS011;2877;48.238;11.160;2022-12-11T08:01:11;21.20;;;11.43;;
5704;SDS011;2877;48.238;11.160;2022-12-11T08:03:38;20.47;;;10.00;;
5704;SDS011;2877;48.238;11.160;2022-12-11T08:06:04;18.00;;;10.47;;
5704;SDS011;2877;48.238;11.160;2022-12-11T08:08:30;17.40;;;9.80;;
5704;SDS011;2877;48.238;11.160;2022-12-11T08:10:59;15.60;;;9.33;;
5704;SDS011;2877;48.238;11.160;2022-12-11T08:13:28;18.50;;;11.00;;
5704;SDS011;2877;48.238;11.160;2022-12-11T08:15:53;18.90;;;10.90;;
5704;SDS011;2877;48.238;11.160;2022-12-11T08:18:19;18.87;;;10.87;;
5704;SDS011;2877;48.238;11.160;2022-12-11T08:20:45;21.90;;;11.20;;
5704;SDS011;2877;48.238;11.160;2022-12-11T08:23:10;21.37;;;10.23;;
5704;SDS011;2877;48.238;11.160;2022-12-11T08:25:36;17.87;;;10.47;;
5704;SDS011;2877;48.238;11.160;2022-12-11T08:28:02;18.23;;;10.17;;
5704;SDS011;2877;48.238;11.160;2022-12-11T08:30:27;17.63;;;10.13;;
5704;SDS011;2877;48.238;11.160;2022-12-11T08:32:53;16.33;;;10.03;;
5704;SDS011;2877;48.238;11.160;2022-12-11T08:35:19;20.17;;;10.13;;
5704;SDS011;2877;48.238;11.160;2022-12-11T08:37:44;17.97;;;10.27;;
5704;SDS011;2877;48.238;11.160;2022-12-11T08:40:10;18.10;;;9.60;;
5704;SDS011;2877;48.238;11.160;2022-12-11T08:42:36;18.50;;;10.53;;
5704;SDS011;2877;48.238;11.160;2022-12-11T08:45:03;19.80;;;10.33;;
5704;SDS011;2877;48.238;11.160;2022-12-11T08:47:28;17.13;;;9.97;;
5704;SDS011;2877;48.238;11.160;2022-12-11T08:49:54;18.43;;;9.90;;
5704;SDS011;2877;48.238;11.160;2022-12-11T08:52:20;17.40;;;9.97;;
5704;SDS011;2877;48.238;11.160;2022-12-11T08:54:46;14.60;;;8.60;;
5704;SDS011;2877;48.238;11.160;2022-12-11T08:57:12;17.03;;;10.50;;
5704;SDS011;2877;48.238;11.160;2022-12-11T08:59:38;14.70;;;8.87;;
5704;SDS011;2877;48.238;11.160;2022-12-11T09:02:03;10.60;;;6.53;;
5704;SDS011;2877;48.238;11.160;2022-12-11T09:04:29;17.83;;;9.60;;
5704;SDS011;2877;48.238;11.160;2022-12-11T09:06:54;15.93;;;9.47;;
5704;SDS011;2877;48.238;11.160;2022-12-11T09:09:20;14.27;;;8.93;;
5704;SDS011;2877;48.238;11.160;2022-12-11T09:11:45;15.60;;;8.80;;
5704;SDS011;2877;48.238;11.160;2022-12-11T09:14:11;17.30;;;8.97;;
5704;SDS011;2877;48.238;11.160;2022-12-11T09:16:37;14.50;;;8.77;;
5704;SDS011;2877;48.238;11.160;2022-12-11T09:19:05;14.37;;;8.23;;
5704;SDS011;2877;48.238;11.160;2022-12-11T09:21:32;13.77;;;8.70;;
5704;SDS011;2877;48.238;11.160;2022-12-11T09:23:59;14.30;;;8.80;;
5704;SDS011;2877;48.238;11.160;2022-12-11T09:26:25;19.57;;;10.30;;
5704;SDS011;2877;48.238;11.160;2022-12-11T09:28:52;24.70;;;11.70;;
5704;SDS011;2877;48.238;11.160;2022-12-11T09:31:19;18.50;;;10.73;;
5704;SDS011;2877;48.238;11.160;2022-12-11T09:33:47;18.33;;;10.37;;
5704;SDS011;2877;48.238;11.160;2022-12-11T09:36:14;14.47;;;8.00;;
5704;SDS011;2877;48.238;11.160;2022-12-11T09:38:40;14.67;;;8.97;;
5704;SDS011;2877;48.238;11.160;2022-12-11T09:43:47;17.90;;;9.00;;
5704;SDS011;2877;48.238;11.160;2022-12-11T09:46:21;18.47;;;10.77;;
5704;SDS011;2877;48.238;11.160;2022-12-11T09:48:47;15.73;;;9.33;;
5704;SDS011;2877;48.238;11.160;2022-12-11T09:51:27;15.70;;;9.73;;
5704;SDS011;2877;48.238;11.160;2022-12-11T09:53:59;14.47;;;9.20;;
5704;SDS011;2877;48.238;11.160;2022-12-11T09:56:48;13.07;;;8.43;;
5704;SDS011;2877;48.238;11.160;2022-12-11T09:59:37;15.53;;;9.20;;
5704;SDS011;2877;48.238;11.160;2022-12-11T10:05:48;12.93;;;8.23;;
5704;SDS011;2877;48.238;11.160;2022-12-11T10:15:59;17.07;;;9.47;;
5704;SDS011;2877;48.238;11.160;2022-12-11T10:18:34;13.00;;;8.50;;
5704;SDS011;2877;48.238;11.160;2022-12-11T10:21:02;13.37;;;8.50;;
5704;SDS011;2877;48.238;11.160;2022-12-11T10:23:29;14.67;;;8.80;;
5704;SDS011;2877;48.238;11.160;2022-12-11T10:26:05;14.50;;;8.60;;
5704;SDS011;2877;48.238;11.160;2022-12-11T10:28:35;18.00;;;10.50;;
5704;SDS011;2877;48.238;11.160;2022-12-11T10:33:30;15.97;;;7.80;;
5704;SDS011;2877;48.238;11.160;2022-12-11T10:35:57;15.43;;;9.83;;
5704;SDS011;2877;48.238;11.160;2022-12-11T10:38:27;10.63;;;8.17;;
5704;SDS011;2877;48.238;11.160;2022-12-11T10:40:57;11.93;;;7.93;;
5704;SDS011;2877;48.238;11.160;2022-12-11T10:43:36;15.73;;;8.57;;
5704;SDS011;2877;48.238;11.160;2022-12-11T10:46:23;16.17;;;9.33;;
5704;SDS011;2877;48.238;11.160;2022-12-11T10:48:54;13.13;;;7.63;;
5704;SDS011;2877;48.238;11.160;2022-12-11T10:51:21;10.13;;;6.60;;
5704;SDS011;2877;48.238;11.160;2022-12-11T10:53:50;10.13;;;6.43;;
5704;SDS011;2877;48.238;11.160;2022-12-11T10:56:27;10.67;;;6.20;;
5704;SDS011;2877;48.238;11.160;2022-12-11T10:58:55;13.40;;;7.13;;
5704;SDS011;2877;48.238;11.160;2022-12-11T11:01:23;11.60;;;7.67;;
5704;SDS011;2877;48.238;11.160;2022-12-11T11:03:58;10.53;;;6.87;;
5704;SDS011;2877;48.238;11.160;2022-12-11T11:06:29;9.83;;;6.20;;
5704;SDS011;2877;48.238;11.160;2022-12-11T11:08:56;11.67;;;6.77;;
5704;SDS011;2877;48.238;11.160;2022-12-11T11:11:29;11.07;;;6.37;;
5704;SDS011;2877;48.238;11.160;2022-12-11T11:14:03;8.87;;;6.20;;
5704;SDS011;2877;48.238;11.160;2022-12-11T11:16:31;7.00;;;5.40;;
5704;SDS011;2877;48.238;11.160;2022-12-11T11:19:04;9.17;;;5.90;;
5704;SDS011;2877;48.238;11.160;2022-12-11T11:21:30;9.90;;;6.43;;
5704;SDS011;2877;48.238;11.160;2022-12-11T11:23:58;8.60;;;5.73;;
5704;SDS011;2877;48.238;11.160;2022-12-11T11:26:24;7.97;;;5.70;;
5704;SDS011;2877;48.238;11.160;2022-12-11T11:28:56;8.33;;;5.47;;
5704;SDS011;2877;48.238;11.160;2022-12-11T11:31:29;7.60;;;5.03;;
5704;SDS011;2877;48.238;11.160;2022-12-11T11:33:57;7.83;;;4.27;;
5704;SDS011;2877;48.238;11.160;2022-12-11T11:36:28;4.97;;;4.13;;
5704;SDS011;2877;48.238;11.160;2022-12-11T11:39:09;7.27;;;4.77;;
5704;SDS011;2877;48.238;11.160;2022-12-11T11:44:38;13.73;;;4.47;;
5704;SDS011;2877;48.238;11.160;2022-12-11T11:47:12;6.70;;;4.53;;
5704;SDS011;2877;48.238;11.160;2022-12-11T11:50:18;11.13;;;4.63;;
5704;SDS011;2877;48.238;11.160;2022-12-11T11:53:06;6.03;;;4.50;;
5704;SDS011;2877;48.238;11.160;2022-12-11T11:55:41;14.67;;;4.33;;
5704;SDS011;2877;48.238;11.160;2022-12-11T11:58:17;5.90;;;4.17;;
5704;SDS011;2877;48.238;11.160;2022-12-11T12:00:47;5.20;;;3.90;;
5704;SDS011;2877;48.238;11.160;2022-12-11T12:03:15;5.90;;;3.67;;
5704;SDS011;2877;48.238;11.160;2022-12-11T12:05:53;4.00;;;2.97;;
5704;SDS011;2877;48.238;11.160;2022-12-11T12:08:45;5.10;;;3.30;;
5704;SDS011;2877;48.238;11.160;2022-12-11T12:11:26;6.53;;;3.87;;
5704;SDS011;2877;48.238;11.160;2022-12-11T12:16:39;5.13;;;3.60;;
5704;SDS011;2877;48.238;11.160;2022-12-11T12:22:06;6.47;;;4.23;;
5704;SDS011;2877;48.238;11.160;2022-12-11T12:30:13;5.90;;;3.80;;
5704;SDS011;2877;48.238;11.160;2022-12-11T12:38:34;5.43;;;3.87;;
5704;SDS011;2877;48.238;11.160;2022-12-11T12:41:21;5.60;;;3.40;;
5704;SDS011;2877;48.238;11.160;2022-12-11T12:43:54;5.03;;;3.77;;
5704;SDS011;2877;48.238;11.160;2022-12-11T12:49:11;7.20;;;4.83;;
5704;SDS011;2877;48.238;11.160;2022-12-11T12:51:49;6.33;;;3.70;;
5704;SDS011;2877;48.238;11.160;2022-12-11T12:54:16;6.00;;;4.30;;
5704;SDS011;2877;48.238;11.160;2022-12-11T12:56:44;7.00;;;4.40;;
5704;SDS011;2877;48.238;11.160;2022-12-11T12:59:21;5.90;;;4.20;;
5704;SDS011;2877;48.238;11.160;2022-12-11T13:01:49;4.93;;;3.30;;
5704;SDS011;2877;48.238;11.160;2022-12-11T13:04:26;5.20;;;4.43;;
5704;SDS011;2877;48.238;11.160;2022-12-11T13:10:01;5.40;;;3.77;;
5704;SDS011;2877;48.238;11.160;2022-12-11T13:12:31;4.37;;;3.37;;
5704;SDS011;2877;48.238;11.160;2022-12-11T13:15:04;4.13;;;3.47;;
5704;SDS011;2877;48.238;11.160;2022-12-11T13:17:46;5.27;;;3.60;;
5704;SDS011;2877;48.238;11.160;2022-12-11T13:22:46;5.43;;;4.33;;
5704;SDS011;2877;48.238;11.160;2022-12-11T13:25:23;6.10;;;4.40;;
5704;SDS011;2877;48.238;11.160;2022-12-11T13:27:49;5.30;;;3.80;;
5704;SDS011;2877;48.238;11.160;2022-12-11T13:32:55;5.50;;;4.03;;
5704;SDS011;2877;48.238;11.160;2022-12-11T13:35:39;5.97;;;4.30;;
5704;SDS011;2877;48.238;11.160;2022-12-11T13:38:06;4.40;;;3.80;;
5704;SDS011;2877;48.238;11.160;2022-12-11T13:40:43;6.50;;;4.50;;
5704;SDS011;2877;48.238;11.160;2022-12-11T13:43:15;6.47;;;4.77;;
5704;SDS011;2877;48.238;11.160;2022-12-11T13:45:51;6.67;;;4.40;;
5704;SDS011;2877;48.238;11.160;2022-12-11T13:48:29;5.77;;;4.13;;
5704;SDS011;2877;48.238;11.160;2022-12-11T13:51:12;6.70;;;4.33;;
5704;SDS011;2877;48.238;11.160;2022-12-11T13:53:41;6.93;;;4.63;;
5704;SDS011;2877;48.238;11.160;2022-12-11T13:56:12;7.20;;;5.00;;
5704;SDS011;2877;48.238;11.160;2022-12-11T13:58:41;7.47;;;4.80;;
5704;SDS011;2877;48.238;11.160;2022-12-11T14:03:39;7.20;;;5.07;;
5704;SDS011;2877;48.238;11.160;2022-12-11T14:06:11;7.37;;;4.73;;
5704;SDS011;2877;48.238;11.160;2022-12-11T14:08:38;7.37;;;4.37;;
5704;SDS011;2877;48.238;11.160;2022-12-11T14:11:11;7.47;;;4.53;;
5704;SDS011;2877;48.238;11.160;2022-12-11T14:13:44;8.10;;;5.10;;
5704;SDS011;2877;48.238;11.160;2022-12-11T14:16:13;8.27;;;4.70;;
5704;SDS011;2877;48.238;11.160;2022-12-11T14:18:46;8.77;;;5.43;;
5704;SDS011;2877;48.238;11.160;2022-12-11T14:21:21;10.40;;;6.80;;
5704;SDS011;2877;48.238;11.160;2022-12-11T14:23:55;10.57;;;6.57;;
5704;SDS011;2877;48.238;11.160;2022-12-11T14:26:23;11.60;;;7.30;;
5704;SDS011;2877;48.238;11.160;2022-12-11T14:28:53;12.70;;;6.47;;
5704;SDS011;2877;48.238;11.160;2022-12-11T14:33:52;12.97;;;6.20;;
5704;SDS011;2877;48.238;11.160;2022-12-11T14:36:26;8.23;;;5.40;;
5704;SDS011;2877;48.238;11.160;2022-12-11T14:39:04;6.47;;;4.90;;
5704;SDS011;2877;48.238;11.160;2022-12-11T14:41:44;8.30;;;4.70;;
5704;SDS011;2877;48.238;11.160;2022-12-11T14:44:15;6.63;;;4.20;;
5704;SDS011;2877;48.238;11.160;2022-12-11T14:46:43;8.17;;;4.80;;
5704;SDS011;2877;48.238;11.160;2022-12-11T14:51:57;8.40;;;5.60;;
5704;SDS011;2877;48.238;11.160;2022-12-11T14:54:28;5.23;;;4.40;;
5704;SDS011;2877;48.238;11.160;2022-12-11T14:56:57;6.87;;;4.80;;
5704;SDS011;2877;48.238;11.160;2022-12-11T14:59:25;7.27;;;5.13;;
5704;SDS011;2877;48.238;11.160;2022-12-11T15:01:57;9.93;;;6.30;;
5704;SDS011;2877;48.238;11.160;2022-12-11T15:04:29;8.40;;;5.20;;
5704;SDS011;2877;48.238;11.160;2022-12-11T15:06:56;6.60;;;5.00;;
5704;SDS011;2877;48.238;11.160;2022-12-11T15:12:09;5.43;;;4.40;;
5704;SDS011;2877;48.238;11.160;2022-12-11T15:14:44;8.63;;;5.17;;
5704;SDS011;2877;48.238;11.160;2022-12-11T15:17:22;8.17;;;5.87;;
5704;SDS011;2877;48.238;11.160;2022-12-11T15:19:50;7.80;;;5.37;;
5704;SDS011;2877;48.238;11.160;2022-12-11T15:22:18;7.63;;;5.47;;
5704;SDS011;2877;48.238;11.160;2022-12-11T15:24:48;8.60;;;5.77;;
5704;SDS011;2877;48.238;11.160;2022-12-11T15:27:31;6.83;;;5.40;;
5704;SDS011;2877;48.238;11.160;2022-12-11T15:30:14;7.47;;;5.20;;
5704;SDS011;2877;48.238;11.160;2022-12-11T15:32:40;8.00;;;5.30;;
5704;SDS011;2877;48.238;11.160;2022-12-11T15:35:19;7.37;;;5.23;;
5704;SDS011;2877;48.238;11.160;2022-12-11T15:37:53;7.83;;;5.37;;
5704;SDS011;2877;48.238;11.160;2022-12-11T15:40:20;12.20;;;6.20;;
5704;SDS011;2877;48.238;11.160;2022-12-11T15:42:46;10.20;;;6.27;;
5704;SDS011;2877;48.238;11.160;2022-12-11T15:45:20;9.30;;;6.50;;
5704;SDS011;2877;48.238;11.160;2022-12-11T15:47:48;11.00;;;6.37;;
5704;SDS011;2877;48.238;11.160;2022-12-11T15:52:42;13.60;;;6.93;;
5704;SDS011;2877;48.238;11.160;2022-12-11T15:55:08;10.60;;;6.57;;
5704;SDS011;2877;48.238;11.160;2022-12-11T15:57:34;11.20;;;7.30;;
5704;SDS011;2877;48.238;11.160;2022-12-11T16:00:01;11.87;;;8.00;;
5704;SDS011;2877;48.238;11.160;2022-12-11T16:02:28;10.50;;;6.97;;
5704;SDS011;2877;48.238;11.160;2022-12-11T16:04:53;8.10;;;6.10;;
5704;SDS011;2877;48.238;11.160;2022-12-11T16:07:22;10.93;;;6.67;;
5704;SDS011;2877;48.238;11.160;2022-12-11T16:09:50;10.53;;;6.30;;
5704;SDS011;2877;48.238;11.160;2022-12-11T16:12:16;11.73;;;7.40;;
5704;SDS011;2877;48.238;11.160;2022-12-11T16:14:42;10.93;;;6.47;;
5704;SDS011;2877;48.238;11.160;2022-12-11T16:17:10;15.53;;;9.37;;
5704;SDS011;2877;48.238;11.160;2022-12-11T16:19:37;14.60;;;6.93;;
5704;SDS011;2877;48.238;11.160;2022-12-11T16:22:03;17.40;;;7.23;;